sensor_id;sensor_type;location;lat;lon;timestamp;temperature;humidity
35603;DHT22;21725;50.836;4.368;2022-11-15T00:00:07;15.20;99.90
35603;DHT22;21725;50.836;4.368;2022-11-15T00:02:33;15.30;99.90
35603;DHT22;21725;50.836;4.368;2022-11-15T00:04:58;15.30;99.90
35603;DHT22;21725;50.836;4.368;2022-11-15T00:07:24;15.30;99.90
35603;DHT22;21725;50.836;4.368;2022-11-15T00:09:50;15.20;99.90
35603;DHT22;21725;50.836;4.368;2022-11-15T00:12:16;15.30;99.90
35603;DHT22;21725;50.836;4.368;2022-11-15T00:14:42;15.30;99.90
35603;DHT22;21725;50.836;4.368;2022-11-15T00:17:07;15.20;99.90
35603;DHT22;21725;50.836;4.368;2022-11-15T00:19:33;15.30;99.90
35603;DHT22;21725;50.836;4.368;2022-11-15T00:22:01;15.20;99.90
35603;DHT22;21725;50.836;4.368;2022-11-15T00:24:27;15.20;99.90
35603;DHT22;21725;50.836;4.368;2022-11-15T00:26:53;15.30;99.90
35603;DHT22;21725;50.836;4.368;2022-11-15T00:29:18;15.20;99.90
35603;DHT22;21725;50.836;4.368;2022-11-15T00:31:44;15.20;99.90
35603;DHT22;21725;50.836;4.368;2022-11-15T00:34:11;15.20;99.90
35603;DHT22;21725;50.836;4.368;2022-11-15T00:36:36;15.10;99.90
35603;DHT22;21725;50.836;4.368;2022-11-15T00:39:05;15.10;99.90
35603;DHT22;21725;50.836;4.368;2022-11-15T00:41:31;15.20;99.90
35603;DHT22;21725;50.836;4.368;2022-11-15T00:43:57;15.30;99.90
35603;DHT22;21725;50.836;4.368;2022-11-15T00:46:23;15.40;99.90
35603;DHT22;21725;50.836;4.368;2022-11-15T00:48:50;15.30;99.90
35603;DHT22;21725;50.836;4.368;2022-11-15T00:51:16;15.40;99.90
35603;DHT22;21725;50.836;4.368;2022-11-15T00:53:41;15.40;99.90
35603;DHT22;21725;50.836;4.368;2022-11-15T00:56:08;15.40;99.90
35603;DHT22;21725;50.836;4.368;2022-11-15T00:58:34;15.50;99.90
35603;DHT22;21725;50.836;4.368;2022-11-15T01:01:10;15.50;99.90
35603;DHT22;21725;50.836;4.368;2022-11-15T01:03:38;15.40;99.90
35603;DHT22;21725;50.836;4.368;2022-11-15T01:06:07;15.50;99.90
35603;DHT22;21725;50.836;4.368;2022-11-15T01:08:34;15.60;99.90
35603;DHT22;21725;50.836;4.368;2022-11-15T01:11:08;15.60;99.90
35603;DHT22;21725;50.836;4.368;2022-11-15T01:13:35;15.40;99.90
35603;DHT22;21725;50.836;4.368;2022-11-15T01:16:13;15.40;99.90
35603;DHT22;21725;50.836;4.368;2022-11-15T01:18:40;15.40;99.90
35603;DHT22;21725;50.836;4.368;2022-11-15T01:21:11;15.50;99.90
35603;DHT22;21725;50.836;4.368;2022-11-15T01:23:38;15.40;99.90
35603;DHT22;21725;50.836;4.368;2022-11-15T01:26:06;15.50;99.90
35603;DHT22;21725;50.836;4.368;2022-11-15T01:28:34;15.40;99.90
35603;DHT22;21725;50.836;4.368;2022-11-15T01:31:03;15.30;99.90
35603;DHT22;21725;50.836;4.368;2022-11-15T01:33:34;15.30;99.90
35603;DHT22;21725;50.836;4.368;2022-11-15T01:36:04;15.30;99.90
35603;DHT22;21725;50.836;4.368;2022-11-15T01:38:30;15.40;99.90
35603;DHT22;21725;50.836;4.368;2022-11-15T01:40:56;15.50;99.90
35603;DHT22;21725;50.836;4.368;2022-11-15T01:43:30;15.50;99.90
35603;DHT22;21725;50.836;4.368;2022-11-15T01:48:48;15.40;99.90
35603;DHT22;21725;50.836;4.368;2022-11-15T01:51:16;15.40;99.90
35603;DHT22;21725;50.836;4.368;2022-11-15T01:53:45;15.40;99.90
35603;DHT22;21725;50.836;4.368;2022-11-15T01:56:13;15.40;99.90
35603;DHT22;21725;50.836;4.368;2022-11-15T01:58:42;15.50;99.90
35603;DHT22;21725;50.836;4.368;2022-11-15T02:01:10;15.50;99.90
35603;DHT22;21725;50.836;4.368;2022-11-15T02:03:50;15.60;99.90
35603;DHT22;21725;50.836;4.368;2022-11-15T02:06:18;15.60;99.90
35603;DHT22;21725;50.836;4.368;2022-11-15T02:08:44;15.60;99.90
35603;DHT22;21725;50.836;4.368;2022-11-15T02:11:10;15.60;99.90
35603;DHT22;21725;50.836;4.368;2022-11-15T02:13:37;15.50;99.90
35603;DHT22;21725;50.836;4.368;2022-11-15T02:22:04;15.30;99.90
35603;DHT22;21725;50.836;4.368;2022-11-15T02:24:55;15.30;99.90
35603;DHT22;21725;50.836;4.368;2022-11-15T02:30:40;15.30;99.90
35603;DHT22;21725;50.836;4.368;2022-11-15T02:33:34;15.40;99.90
35603;DHT22;21725;50.836;4.368;2022-11-15T02:36:07;15.40;99.90
35603;DHT22;21725;50.836;4.368;2022-11-15T02:38:47;15.30;99.90
35603;DHT22;21725;50.836;4.368;2022-11-15T02:41:22;15.30;99.90
35603;DHT22;21725;50.836;4.368;2022-11-15T02:46:45;15.40;99.90
35603;DHT22;21725;50.836;4.368;2022-11-15T02:49:35;15.40;99.90
35603;DHT22;21725;50.836;4.368;2022-11-15T02:52:03;15.40;99.90
35603;DHT22;21725;50.836;4.368;2022-11-15T02:54:33;15.40;99.90
35603;DHT22;21725;50.836;4.368;2022-11-15T02:57:06;15.40;99.90
35603;DHT22;21725;50.836;4.368;2022-11-15T03:04:57;15.30;99.90
35603;DHT22;21725;50.836;4.368;2022-11-15T03:16:03;15.50;99.90
35603;DHT22;21725;50.836;4.368;2022-11-15T03:18:38;15.40;99.90
35603;DHT22;21725;50.836;4.368;2022-11-15T03:21:08;15.50;99.90
35603;DHT22;21725;50.836;4.368;2022-11-15T03:23:39;15.40;99.90
35603;DHT22;21725;50.836;4.368;2022-11-15T03:26:08;15.40;99.90
35603;DHT22;21725;50.836;4.368;2022-11-15T03:31:07;15.30;99.90
35603;DHT22;21725;50.836;4.368;2022-11-15T03:33:54;15.30;99.90
35603;DHT22;21725;50.836;4.368;2022-11-15T03:36:25;15.40;99.90
35603;DHT22;21725;50.836;4.368;2022-11-15T03:38:54;15.20;99.90
35603;DHT22;21725;50.836;4.368;2022-11-15T03:44:45;15.30;99.90
35603;DHT22;21725;50.836;4.368;2022-11-15T03:47:33;15.30;99.90
35603;DHT22;21725;50.836;4.368;2022-11-15T03:50:14;15.20;99.90
35603;DHT22;21725;50.836;4.368;2022-11-15T03:52:41;15.10;99.90
35603;DHT22;21725;50.836;4.368;2022-11-15T03:55:12;15.10;99.90
35603;DHT22;21725;50.836;4.368;2022-11-15T03:57:39;15.00;99.90
35603;DHT22;21725;50.836;4.368;2022-11-15T04:00:06;15.10;99.90
35603;DHT22;21725;50.836;4.368;2022-11-15T04:02:32;14.90;99.90
35603;DHT22;21725;50.836;4.368;2022-11-15T04:04:58;14.80;99.90
35603;DHT22;21725;50.836;4.368;2022-11-15T04:07:24;14.90;99.90
35603;DHT22;21725;50.836;4.368;2022-11-15T04:09:50;15.10;99.90
35603;DHT22;21725;50.836;4.368;2022-11-15T04:12:31;15.10;99.90
35603;DHT22;21725;50.836;4.368;2022-11-15T04:17:39;14.90;99.90
35603;DHT22;21725;50.836;4.368;2022-11-15T04:20:08;14.90;99.90
35603;DHT22;21725;50.836;4.368;2022-11-15T04:22:56;15.00;99.90
35603;DHT22;21725;50.836;4.368;2022-11-15T04:25:42;15.00;99.90
35603;DHT22;21725;50.836;4.368;2022-11-15T04:28:08;14.90;99.90
35603;DHT22;21725;50.836;4.368;2022-11-15T04:30:34;14.90;99.90
35603;DHT22;21725;50.836;4.368;2022-11-15T04:33:00;14.90;99.90
35603;DHT22;21725;50.836;4.368;2022-11-15T04:35:26;14.80;99.90
35603;DHT22;21725;50.836;4.368;2022-11-15T04:37:52;14.70;99.90
35603;DHT22;21725;50.836;4.368;2022-11-15T04:40:18;14.80;99.90
35603;DHT22;21725;50.836;4.368;2022-11-15T04:42:44;14.80;99.90
35603;DHT22;21725;50.836;4.368;2022-11-15T04:45:11;14.60;99.90
35603;DHT22;21725;50.836;4.368;2022-11-15T04:47:37;14.70;99.90
35603;DHT22;21725;50.836;4.368;2022-11-15T04:50:03;14.70;99.90
35603;DHT22;21725;50.836;4.368;2022-11-15T04:52:29;14.50;99.90
35603;DHT22;21725;50.836;4.368;2022-11-15T04:54:56;14.50;99.90
35603;DHT22;21725;50.836;4.368;2022-11-15T04:57:22;14.50;99.90
35603;DHT22;21725;50.836;4.368;2022-11-15T04:59:48;14.60;99.90
35603;DHT22;21725;50.836;4.368;2022-11-15T05:02:14;14.60;99.90
35603;DHT22;21725;50.836;4.368;2022-11-15T05:25:47;11.00;99.90
35603;DHT22;21725;50.836;4.368;2022-11-15T05:28:13;11.00;99.90
35603;DHT22;21725;50.836;4.368;2022-11-15T05:30:39;11.30;99.90
35603;DHT22;21725;50.836;4.368;2022-11-15T05:33:05;11.70;99.90
35603;DHT22;21725;50.836;4.368;2022-11-15T05:35:38;12.10;99.90
35603;DHT22;21725;50.836;4.368;2022-11-15T05:38:05;12.60;99.90
35603;DHT22;21725;50.836;4.368;2022-11-15T05:40:32;13.00;99.90
35603;DHT22;21725;50.836;4.368;2022-11-15T05:43:01;13.00;99.90
35603;DHT22;21725;50.836;4.368;2022-11-15T05:45:28;13.10;99.90
35603;DHT22;21725;50.836;4.368;2022-11-15T05:47:55;13.40;99.90
35603;DHT22;21725;50.836;4.368;2022-11-15T05:50:22;13.40;99.90
35603;DHT22;21725;50.836;4.368;2022-11-15T05:52:48;13.50;99.90
35603;DHT22;21725;50.836;4.368;2022-11-15T05:55:15;13.40;99.90
35603;DHT22;21725;50.836;4.368;2022-11-15T05:57:41;13.40;99.90
35603;DHT22;21725;50.836;4.368;2022-11-15T06:00:07;13.50;99.90
35603;DHT22;21725;50.836;4.368;2022-11-15T06:02:34;13.70;99.90
35603;DHT22;21725;50.836;4.368;2022-11-15T06:05:00;13.70;99.90
35603;DHT22;21725;50.836;4.368;2022-11-15T06:07:26;13.60;99.90
35603;DHT22;21725;50.836;4.368;2022-11-15T06:09:51;13.50;99.90
35603;DHT22;21725;50.836;4.368;2022-11-15T06:12:17;13.50;99.90
35603;DHT22;21725;50.836;4.368;2022-11-15T06:14:43;13.50;99.90
35603;DHT22;21725;50.836;4.368;2022-11-15T06:17:09;13.40;99.90
35603;DHT22;21725;50.836;4.368;2022-11-15T06:19:34;13.30;99.90
35603;DHT22;21725;50.836;4.368;2022-11-15T06:22:00;13.20;99.90
35603;DHT22;21725;50.836;4.368;2022-11-15T06:24:26;13.30;99.90
35603;DHT22;21725;50.836;4.368;2022-11-15T06:26:52;13.50;99.90
35603;DHT22;21725;50.836;4.368;2022-11-15T06:29:18;13.40;99.90
35603;DHT22;21725;50.836;4.368;2022-11-15T06:31:44;13.40;99.90
35603;DHT22;21725;50.836;4.368;2022-11-15T06:34:09;13.30;99.90
35603;DHT22;21725;50.836;4.368;2022-11-15T06:36:36;13.30;99.90
35603;DHT22;21725;50.836;4.368;2022-11-15T06:39:03;13.40;99.90
35603;DHT22;21725;50.836;4.368;2022-11-15T06:41:29;13.40;99.90
35603;DHT22;21725;50.836;4.368;2022-11-15T06:43:54;13.30;99.90
35603;DHT22;21725;50.836;4.368;2022-11-15T06:46:20;13.30;99.90
35603;DHT22;21725;50.836;4.368;2022-11-15T06:48:46;13.40;99.90
35603;DHT22;21725;50.836;4.368;2022-11-15T06:51:13;13.30;99.90
35603;DHT22;21725;50.836;4.368;2022-11-15T06:53:39;13.20;99.90
35603;DHT22;21725;50.836;4.368;2022-11-15T06:56:06;13.20;99.90
35603;DHT22;21725;50.836;4.368;2022-11-15T06:58:32;13.10;99.90
35603;DHT22;21725;50.836;4.368;2022-11-15T07:01:00;13.10;99.90
35603;DHT22;21725;50.836;4.368;2022-11-15T07:03:26;13.50;99.90
35603;DHT22;21725;50.836;4.368;2022-11-15T07:05:56;13.10;99.90
35603;DHT22;21725;50.836;4.368;2022-11-15T07:08:23;12.80;99.90
35603;DHT22;21725;50.836;4.368;2022-11-15T07:10:49;13.10;99.90
35603;DHT22;21725;50.836;4.368;2022-11-15T07:13:15;13.00;99.90
35603;DHT22;21725;50.836;4.368;2022-11-15T07:15:41;13.10;99.90
35603;DHT22;21725;50.836;4.368;2022-11-15T07:18:07;13.00;99.90
35603;DHT22;21725;50.836;4.368;2022-11-15T07:20:33;12.90;99.90
35603;DHT22;21725;50.836;4.368;2022-11-15T07:23:05;12.90;99.90
35603;DHT22;21725;50.836;4.368;2022-11-15T07:25:31;12.50;99.90
35603;DHT22;21725;50.836;4.368;2022-11-15T07:27:58;12.70;99.90
35603;DHT22;21725;50.836;4.368;2022-11-15T07:30:24;12.70;99.90
35603;DHT22;21725;50.836;4.368;2022-11-15T07:32:57;12.60;99.90
35603;DHT22;21725;50.836;4.368;2022-11-15T07:35:25;12.60;99.90
35603;DHT22;21725;50.836;4.368;2022-11-15T07:38:01;12.60;99.90
35603;DHT22;21725;50.836;4.368;2022-11-15T07:40:30;12.60;99.90
35603;DHT22;21725;50.836;4.368;2022-11-15T07:43:03;13.00;99.90
35603;DHT22;21725;50.836;4.368;2022-11-15T07:45:29;12.50;99.90
35603;DHT22;21725;50.836;4.368;2022-11-15T07:47:55;12.30;99.90
35603;DHT22;21725;50.836;4.368;2022-11-15T07:50:23;12.10;99.90
35603;DHT22;21725;50.836;4.368;2022-11-15T07:52:57;12.10;99.90
35603;DHT22;21725;50.836;4.368;2022-11-15T07:55:27;12.20;99.90
35603;DHT22;21725;50.836;4.368;2022-11-15T07:58:04;12.20;99.90
35603;DHT22;21725;50.836;4.368;2022-11-15T08:00:33;12.50;99.90
35603;DHT22;21725;50.836;4.368;2022-11-15T08:03:10;12.40;99.90
35603;DHT22;21725;50.836;4.368;2022-11-15T08:05:37;12.40;99.90
35603;DHT22;21725;50.836;4.368;2022-11-15T08:08:04;12.40;99.90
35603;DHT22;21725;50.836;4.368;2022-11-15T08:10:31;12.40;99.90
35603;DHT22;21725;50.836;4.368;2022-11-15T08:13:04;12.50;99.90
35603;DHT22;21725;50.836;4.368;2022-11-15T08:15:32;12.50;99.90
35603;DHT22;21725;50.836;4.368;2022-11-15T08:18:00;12.50;99.90
35603;DHT22;21725;50.836;4.368;2022-11-15T08:20:28;12.60;99.90
35603;DHT22;21725;50.836;4.368;2022-11-15T08:22:59;12.70;99.90
35603;DHT22;21725;50.836;4.368;2022-11-15T08:25:26;12.80;99.90
35603;DHT22;21725;50.836;4.368;2022-11-15T08:27:53;12.80;99.90
35603;DHT22;21725;50.836;4.368;2022-11-15T08:30:22;12.70;99.90
35603;DHT22;21725;50.836;4.368;2022-11-15T08:32:49;13.00;99.90
35603;DHT22;21725;50.836;4.368;2022-11-15T08:35:15;12.50;99.90
35603;DHT22;21725;50.836;4.368;2022-11-15T08:37:41;13.00;99.90
35603;DHT22;21725;50.836;4.368;2022-11-15T08:40:08;12.60;99.90
35603;DHT22;21725;50.836;4.368;2022-11-15T08:42:35;12.50;99.90
35603;DHT22;21725;50.836;4.368;2022-11-15T08:45:02;12.40;99.90
35603;DHT22;21725;50.836;4.368;2022-11-15T08:47:28;12.50;99.90
35603;DHT22;21725;50.836;4.368;2022-11-15T08:49:54;12.60;99.90
35603;DHT22;21725;50.836;4.368;2022-11-15T08:52:20;12.60;99.90
35603;DHT22;21725;50.836;4.368;2022-11-15T08:54:46;12.70;99.90
35603;DHT22;21725;50.836;4.368;2022-11-15T08:57:12;12.90;99.90
35603;DHT22;21725;50.836;4.368;2022-11-15T08:59:41;12.90;99.90
35603;DHT22;21725;50.836;4.368;2022-11-15T09:02:14;12.90;99.90
35603;DHT22;21725;50.836;4.368;2022-11-15T09:04:43;12.90;99.90
35603;DHT22;21725;50.836;4.368;2022-11-15T09:07:10;13.00;99.90
35603;DHT22;21725;50.836;4.368;2022-11-15T09:09:37;13.20;99.90
35603;DHT22;21725;50.836;4.368;2022-11-15T09:12:03;13.20;99.90
35603;DHT22;21725;50.836;4.368;2022-11-15T09:14:29;12.90;99.90
35603;DHT22;21725;50.836;4.368;2022-11-15T09:16:58;13.20;99.90
35603;DHT22;21725;50.836;4.368;2022-11-15T09:19:24;13.60;99.90
35603;DHT22;21725;50.836;4.368;2022-11-15T09:21:53;13.10;99.90
35603;DHT22;21725;50.836;4.368;2022-11-15T09:24:22;13.10;99.90
35603;DHT22;21725;50.836;4.368;2022-11-15T09:26:50;13.20;99.90
35603;DHT22;21725;50.836;4.368;2022-11-15T09:29:19;13.30;99.90
35603;DHT22;21725;50.836;4.368;2022-11-15T09:31:45;13.40;99.90
35603;DHT22;21725;50.836;4.368;2022-11-15T09:34:11;13.50;99.90
35603;DHT22;21725;50.836;4.368;2022-11-15T09:36:37;12.90;99.90
35603;DHT22;21725;50.836;4.368;2022-11-15T09:39:03;13.60;99.90
35603;DHT22;21725;50.836;4.368;2022-11-15T09:44:33;13.60;99.90
35603;DHT22;21725;50.836;4.368;2022-11-15T09:47:28;13.60;99.90
35603;DHT22;21725;50.836;4.368;2022-11-15T09:49:56;13.50;99.90
35603;DHT22;21725;50.836;4.368;2022-11-15T09:52:26;13.70;99.90
35603;DHT22;21725;50.836;4.368;2022-11-15T09:54:53;13.70;99.90
35603;DHT22;21725;50.836;4.368;2022-11-15T09:57:38;13.90;99.90
35603;DHT22;21725;50.836;4.368;2022-11-15T10:00:14;13.80;99.80
35603;DHT22;21725;50.836;4.368;2022-11-15T10:05:45;13.80;99.80
35603;DHT22;21725;50.836;4.368;2022-11-15T10:10:47;13.90;99.80
35603;DHT22;21725;50.836;4.368;2022-11-15T10:15:47;14.10;99.10
35603;DHT22;21725;50.836;4.368;2022-11-15T10:18:23;14.00;99.30
35603;DHT22;21725;50.836;4.368;2022-11-15T10:20:59;14.00;99.30
35603;DHT22;21725;50.836;4.368;2022-11-15T10:23:29;14.00;99.40
35603;DHT22;21725;50.836;4.368;2022-11-15T10:25:58;14.00;99.40
35603;DHT22;21725;50.836;4.368;2022-11-15T10:28:29;14.00;99.30
35603;DHT22;21725;50.836;4.368;2022-11-15T10:30:57;14.10;99.00
35603;DHT22;21725;50.836;4.368;2022-11-15T10:33:33;14.20;98.90
35603;DHT22;21725;50.836;4.368;2022-11-15T10:43:42;14.80;98.10
35603;DHT22;21725;50.836;4.368;2022-11-15T10:46:23;14.60;98.00
35603;DHT22;21725;50.836;4.368;2022-11-15T10:48:49;14.70;98.00
35603;DHT22;21725;50.836;4.368;2022-11-15T10:51:27;14.80;97.80
35603;DHT22;21725;50.836;4.368;2022-11-15T10:53:59;14.80;97.30
35603;DHT22;21725;50.836;4.368;2022-11-15T10:56:26;15.00;97.10
35603;DHT22;21725;50.836;4.368;2022-11-15T10:58:56;15.10;96.90
35603;DHT22;21725;50.836;4.368;2022-11-15T11:01:24;15.10;97.10
35603;DHT22;21725;50.836;4.368;2022-11-15T11:24:42;12.50;99.90
35603;DHT22;21725;50.836;4.368;2022-11-15T11:33:21;14.00;98.80
35603;DHT22;21725;50.836;4.368;2022-11-15T11:35:59;14.30;98.30
35603;DHT22;21725;50.836;4.368;2022-11-15T11:38:42;14.60;97.70
35603;DHT22;21725;50.836;4.368;2022-11-15T11:49:22;15.10;97.30
35603;DHT22;21725;50.836;4.368;2022-11-15T11:52:02;15.20;97.10
35603;DHT22;21725;50.836;4.368;2022-11-15T11:57:00;15.60;96.70
35603;DHT22;21725;50.836;4.368;2022-11-15T12:02:26;15.60;96.60
35603;DHT22;21725;50.836;4.368;2022-11-15T12:05:01;15.80;96.70
35603;DHT22;21725;50.836;4.368;2022-11-15T12:07:32;15.70;96.70
35603;DHT22;21725;50.836;4.368;2022-11-15T12:10:03;15.70;96.80
35603;DHT22;21725;50.836;4.368;2022-11-15T12:12:50;15.60;96.80
35603;DHT22;21725;50.836;4.368;2022-11-15T12:15:31;15.60;96.90
35603;DHT22;21725;50.836;4.368;2022-11-15T12:17:57;16.10;97.10
35603;DHT22;21725;50.836;4.368;2022-11-15T12:20:35;15.70;97.10
35603;DHT22;21725;50.836;4.368;2022-11-15T12:23:08;15.70;97.20
35603;DHT22;21725;50.836;4.368;2022-11-15T12:28:40;15.40;97.50
35603;DHT22;21725;50.836;4.368;2022-11-15T12:31:21;15.40;97.70
35603;DHT22;21725;50.836;4.368;2022-11-15T12:33:49;15.40;97.80
35603;DHT22;21725;50.836;4.368;2022-11-15T12:41:20;15.60;97.70
35603;DHT22;21725;50.836;4.368;2022-11-15T12:43:51;15.60;97.60
35603;DHT22;21725;50.836;4.368;2022-11-15T12:49:41;15.50;98.10
35603;DHT22;21725;50.836;4.368;2022-11-15T12:52:11;15.50;97.90
35603;DHT22;21725;50.836;4.368;2022-11-15T12:54:56;15.50;97.90
35603;DHT22;21725;50.836;4.368;2022-11-15T12:57:33;15.60;98.10
35603;DHT22;21725;50.836;4.368;2022-11-15T13:03:16;15.70;98.00
35603;DHT22;21725;50.836;4.368;2022-11-15T13:08:08;15.60;98.30
35603;DHT22;21725;50.836;4.368;2022-11-15T13:10:34;15.70;98.20
35603;DHT22;21725;50.836;4.368;2022-11-15T13:13:04;15.70;98.20
35603;DHT22;21725;50.836;4.368;2022-11-15T13:15:52;15.80;98.10
35603;DHT22;21725;50.836;4.368;2022-11-15T13:18:33;15.90;98.10
35603;DHT22;21725;50.836;4.368;2022-11-15T13:21:00;15.90;98.10
35603;DHT22;21725;50.836;4.368;2022-11-15T13:23:27;16.00;97.90
35603;DHT22;21725;50.836;4.368;2022-11-15T13:28:45;15.90;98.10
35603;DHT22;21725;50.836;4.368;2022-11-15T13:31:24;15.80;98.20
35603;DHT22;21725;50.836;4.368;2022-11-15T13:33:51;15.60;98.50
35603;DHT22;21725;50.836;4.368;2022-11-15T13:36:25;15.60;98.60
35603;DHT22;21725;50.836;4.368;2022-11-15T13:39:04;15.70;98.50
35603;DHT22;21725;50.836;4.368;2022-11-15T13:41:35;15.60;98.60
35603;DHT22;21725;50.836;4.368;2022-11-15T13:44:03;15.70;98.50
35603;DHT22;21725;50.836;4.368;2022-11-15T13:46:33;15.70;98.40
35603;DHT22;21725;50.836;4.368;2022-11-15T13:49:02;16.00;98.50
35603;DHT22;21725;50.836;4.368;2022-11-15T13:56:41;16.10;97.90
35603;DHT22;21725;50.836;4.368;2022-11-15T13:59:20;16.10;97.90
35603;DHT22;21725;50.836;4.368;2022-11-15T14:01:50;16.10;98.10
35603;DHT22;21725;50.836;4.368;2022-11-15T14:04:20;16.10;98.20
35603;DHT22;21725;50.836;4.368;2022-11-15T14:07:01;16.20;98.40
35603;DHT22;21725;50.836;4.368;2022-11-15T14:09:36;15.90;98.30
35603;DHT22;21725;50.836;4.368;2022-11-15T14:14:46;15.90;98.30
35603;DHT22;21725;50.836;4.368;2022-11-15T14:17:37;16.10;98.30
35603;DHT22;21725;50.836;4.368;2022-11-15T14:20:40;16.10;98.70
35603;DHT22;21725;50.836;4.368;2022-11-15T14:23:28;15.90;98.60
35603;DHT22;21725;50.836;4.368;2022-11-15T14:25:58;16.00;98.80
35603;DHT22;21725;50.836;4.368;2022-11-15T14:30:52;16.10;99.20
35603;DHT22;21725;50.836;4.368;2022-11-15T14:33:43;16.10;99.20
35603;DHT22;21725;50.836;4.368;2022-11-15T14:36:14;16.00;99.70
35603;DHT22;21725;50.836;4.368;2022-11-15T14:38:41;15.80;99.90
35603;DHT22;21725;50.836;4.368;2022-11-15T14:41:25;15.80;99.90
35603;DHT22;21725;50.836;4.368;2022-11-15T14:43:52;15.90;99.90
35603;DHT22;21725;50.836;4.368;2022-11-15T14:46:19;15.80;99.90
35603;DHT22;21725;50.836;4.368;2022-11-15T14:48:48;15.70;99.90
35603;DHT22;21725;50.836;4.368;2022-11-15T14:51:17;15.50;99.90
35603;DHT22;21725;50.836;4.368;2022-11-15T14:53:44;15.50;99.90
35603;DHT22;21725;50.836;4.368;2022-11-15T14:56:13;15.40;99.90
35603;DHT22;21725;50.836;4.368;2022-11-15T14:58:42;15.40;99.90
35603;DHT22;21725;50.836;4.368;2022-11-15T15:01:20;15.50;99.90
35603;DHT22;21725;50.836;4.368;2022-11-15T15:03:46;15.40;99.90
35603;DHT22;21725;50.836;4.368;2022-11-15T15:06:12;15.40;99.90
35603;DHT22;21725;50.836;4.368;2022-11-15T15:08:39;15.40;99.90
35603;DHT22;21725;50.836;4.368;2022-11-15T15:11:21;15.40;99.90
35603;DHT22;21725;50.836;4.368;2022-11-15T15:13:47;15.20;99.90
35603;DHT22;21725;50.836;4.368;2022-11-15T15:16:13;15.20;99.90
35603;DHT22;21725;50.836;4.368;2022-11-15T15:18:39;15.20;99.90
35603;DHT22;21725;50.836;4.368;2022-11-15T15:21:23;15.20;99.90
35603;DHT22;21725;50.836;4.368;2022-11-15T15:23:50;15.30;99.90
35603;DHT22;21725;50.836;4.368;2022-11-15T15:26:16;15.20;99.90
35603;DHT22;21725;50.836;4.368;2022-11-15T15:28:42;15.30;99.90
35603;DHT22;21725;50.836;4.368;2022-11-15T15:31:09;15.30;99.90
35603;DHT22;21725;50.836;4.368;2022-11-15T15:33:36;15.10;99.90
35603;DHT22;21725;50.836;4.368;2022-11-15T15:36:02;15.30;99.90
35603;DHT22;21725;50.836;4.368;2022-11-15T15:38:33;15.10;99.90
35603;DHT22;21725;50.836;4.368;2022-11-15T15:41:01;15.10;99.90
35603;DHT22;21725;50.836;4.368;2022-11-15T15:43:28;15.10;99.90
35603;DHT22;21725;50.836;4.368;2022-11-15T15:45:54;15.10;99.90
35603;DHT22;21725;50.836;4.368;2022-11-15T15:48:20;15.10;99.90
35603;DHT22;21725;50.836;4.368;2022-11-15T15:50:46;15.10;99.90
35603;DHT22;21725;50.836;4.368;2022-11-15T15:53:14;14.90;99.90
35603;DHT22;21725;50.836;4.368;2022-11-15T15:55:40;14.90;99.90
35603;DHT22;21725;50.836;4.368;2022-11-15T15:58:07;14.90;99.90
35603;DHT22;21725;50.836;4.368;2022-11-15T16:00:34;14.80;99.90
35603;DHT22;21725;50.836;4.368;2022-11-15T16:03:00;15.00;99.90
35603;DHT22;21725;50.836;4.368;2022-11-15T16:05:26;15.10;99.90
35603;DHT22;21725;50.836;4.368;2022-11-15T16:07:53;15.10;99.90
35603;DHT22;21725;50.836;4.368;2022-11-15T16:10:25;15.10;99.90
35603;DHT22;21725;50.836;4.368;2022-11-15T16:12:52;15.10;99.90
35603;DHT22;21725;50.836;4.368;2022-11-15T16:15:18;15.20;99.90
35603;DHT22;21725;50.836;4.368;2022-11-15T16:17:55;15.10;99.90
35603;DHT22;21725;50.836;4.368;2022-11-15T16:23:00;15.10;99.90
35603;DHT22;21725;50.836;4.368;2022-11-15T16:25:27;15.10;99.90
35603;DHT22;21725;50.836;4.368;2022-11-15T16:27:54;15.10;99.90
35603;DHT22;21725;50.836;4.368;2022-11-15T16:30:23;15.10;99.90
35603;DHT22;21725;50.836;4.368;2022-11-15T16:32:49;15.10;99.90
35603;DHT22;21725;50.836;4.368;2022-11-15T16:35:16;15.20;99.90
35603;DHT22;21725;50.836;4.368;2022-11-15T16:37:47;15.10;99.90
35603;DHT22;21725;50.836;4.368;2022-11-15T16:40:19;15.00;99.90
35603;DHT22;21725;50.836;4.368;2022-11-15T16:42:47;14.90;99.90
35603;DHT22;21725;50.836;4.368;2022-11-15T16:45:21;14.90;99.90
35603;DHT22;21725;50.836;4.368;2022-11-15T16:47:52;15.00;99.90
35603;DHT22;21725;50.836;4.368;2022-11-15T16:50:27;14.90;99.90
35603;DHT22;21725;50.836;4.368;2022-11-15T16:52:58;14.80;99.90
35603;DHT22;21725;50.836;4.368;2022-11-15T16:55:26;15.00;99.90
35603;DHT22;21725;50.836;4.368;2022-11-15T16:57:53;15.00;99.90
35603;DHT22;21725;50.836;4.368;2022-11-15T17:00:20;14.90;99.90
35603;DHT22;21725;50.836;4.368;2022-11-15T17:34:39;12.40;99.90
35603;DHT22;21725;50.836;4.368;2022-11-15T17:37:05;14.90;99.90
35603;DHT22;21725;50.836;4.368;2022-11-15T17:39:31;14.90;99.90
35603;DHT22;21725;50.836;4.368;2022-11-15T17:41:58;15.10;99.90
35603;DHT22;21725;50.836;4.368;2022-11-15T17:44:23;15.20;99.90
35603;DHT22;21725;50.836;4.368;2022-11-15T17:46:50;15.30;99.90
35603;DHT22;21725;50.836;4.368;2022-11-15T17:49:16;15.20;99.90
35603;DHT22;21725;50.836;4.368;2022-11-15T17:51:42;15.10;99.90
35603;DHT22;21725;50.836;4.368;2022-11-15T17:54:09;15.10;99.90
35603;DHT22;21725;50.836;4.368;2022-11-15T17:56:38;15.10;99.90
35603;DHT22;21725;50.836;4.368;2022-11-15T17:59:05;15.10;99.90
35603;DHT22;21725;50.836;4.368;2022-11-15T18:01:32;15.20;99.90
35603;DHT22;21725;50.836;4.368;2022-11-15T18:04:03;15.20;99.90
35603;DHT22;21725;50.836;4.368;2022-11-15T18:06:31;15.20;99.90
35603;DHT22;21725;50.836;4.368;2022-11-15T18:08:58;15.20;99.90
35603;DHT22;21725;50.836;4.368;2022-11-15T18:11:35;15.10;99.90
35603;DHT22;21725;50.836;4.368;2022-11-15T18:14:08;15.10;99.90
35603;DHT22;21725;50.836;4.368;2022-11-15T18:16:36;15.10;99.90
35603;DHT22;21725;50.836;4.368;2022-11-15T18:19:03;15.20;99.90
35603;DHT22;21725;50.836;4.368;2022-11-15T18:21:33;15.20;99.90
35603;DHT22;21725;50.836;4.368;2022-11-15T18:24:00;15.30;99.90
35603;DHT22;21725;50.836;4.368;2022-11-15T18:26:28;15.40;99.90
35603;DHT22;21725;50.836;4.368;2022-11-15T18:28:56;15.40;99.90
35603;DHT22;21725;50.836;4.368;2022-11-15T18:31:27;15.40;99.90
35603;DHT22;21725;50.836;4.368;2022-11-15T18:33:58;15.30;99.90
35603;DHT22;21725;50.836;4.368;2022-11-15T18:36:27;15.40;99.90
35603;DHT22;21725;50.836;4.368;2022-11-15T18:38:55;15.50;99.90
35603;DHT22;21725;50.836;4.368;2022-11-15T18:41:21;15.40;99.90
35603;DHT22;21725;50.836;4.368;2022-11-15T18:43:50;15.30;99.90
35603;DHT22;21725;50.836;4.368;2022-11-15T18:46:20;15.20;99.90